Valparaiso, IN (46383)

10:33 PM CDT on August 31, 2015 (GMT -0500)
Career Center Roof | | Change Station
CLOSE
Current Station
Personal Weather Station
Location: Valparaiso, IN
Elevation: 817 ft
Nearby Weather Stations

Elev 817 ft 41.48 °N, 87.06 °W | Updated 30 seconds ago

Clear
Clear
73.6 °F
Feels Like 71 °F
N
0.0
Wind Variable Wind from SW
Gusts 0.0 mph

Today
High -- | Low -- °F
--% Chance of Precip.
Yesterday
High -- | Low -- °F
Precip. -- in
6:13 AM 7:23 PM
Waning Gibbous, 92% visible
Pressure 30.06 in
Visibility 5.0 miles
Clouds Clear
Heat Index 71 °F
Dew Point 72 °F
Humidity 94%
Rainfall 0.01 in
Snow Depth Not available.
UV 0.0 out of 12
Pollen 10.40 out of 12
Air Quality Not available.
Flu Activity Not available.
METAR KVPZ 010256Z AUTO 05003KT 5SM BR CLR 22/21 A3007 RMK AO2 SLP178 T02220206 51013 TSNO
Pressure 30.06 in
Visibility 5.0 miles
Clouds Clear
Heat Index 71 °F
Dew Point 72 °F
Humidity 94%
Rainfall 0.01 in
Snow Depth Not available.
UV 0.0 out of 12
Pollen 10.40 out of 12
Air Quality Not available.
Flu Activity Not available.
METAR KVPZ 010256Z AUTO 05003KT 5SM BR CLR 22/21 A3007 RMK AO2 SLP178 T02220206 51013 TSNO

10-Day Weather Forecast

×

Almanac

Astronomy

Aug. 31, 2015 Rise Set
Actual Time
Civil Twilight
Nautical Twilight
Astronomical Twilight
Moon
Length of Visible Light
Length of Day
Tomorrow will be .
, % of the Moon is Illuminated

Today's Extremes

State Highs State Lows

Community

WunderPhotos

Upload Photos

1,851,475 photos uploaded!

WunderBlogs® & News

Nearby

Air Quality

  Air Quality AQ Index Pollutant
Not available.

Snow Depth

Station Depth Elevation

Earthquake Activity

City Distance Mag. Time & Date
Minimum magnitude displayed is 2.5.

Coastal Water Temperatures

Place Temperature

Stations

Nearby Weather Stations

Station Location Temp. Windchill Dew Point Humidity Wind Precip. Elev Updated Type